RJTR(METAR)
01/24 00:58
METAR RJTR 231558Z AUTO VRB03KT 10SM CLR M01/M10 A3000 RMK AO2 SLP164
T10101104 $=
戻る
トップページへ戻る
IMOC Co,.Ltd.